createdAt,value
2024-02-29T00:01:23.425Z,100861.28
2024-02-29T00:03:51.788Z,100870.16
2024-02-29T00:06:20.347Z,100868.09
2024-02-29T00:08:48.650Z,100869.94
2024-02-29T00:11:16.967Z,100863.81
2024-02-29T00:13:45.290Z,100866.41
2024-02-29T00:16:13.619Z,100868.91
2024-02-29T00:18:43.128Z,100869.66
2024-02-29T00:21:11.877Z,100870.88
2024-02-29T00:23:40.283Z,100869.59
2024-02-29T00:26:08.851Z,100872.06
2024-02-29T00:28:37.134Z,100881.34
2024-02-29T00:31:05.939Z,100873.13
2024-02-29T00:33:34.531Z,100862.53
2024-02-29T00:36:09.287Z,100862.53
2024-02-29T00:38:39.636Z,100871.75
2024-02-29T00:41:08.206Z,100866.41
2024-02-29T00:43:36.514Z,100858.59
2024-02-29T00:46:04.932Z,100856.75
2024-02-29T00:48:33.239Z,100841.94
2024-02-29T00:51:01.508Z,100847.72
2024-02-29T00:53:29.702Z,100847.72
2024-02-29T00:55:57.958Z,100852.69
2024-02-29T00:58:26.144Z,100858.22
2024-02-29T01:00:55.619Z,100853.88
2024-02-29T01:03:24.105Z,100850.19
2024-02-29T01:05:52.499Z,100852.88
2024-02-29T01:08:20.741Z,100845.47
2024-02-29T01:10:49.750Z,100839.53
2024-02-29T01:13:18.544Z,100842.75
2024-02-29T01:15:47.445Z,100833.28
2024-02-29T01:18:15.803Z,100835.16
2024-02-29T01:20:44.033Z,100845.19
2024-02-29T01:23:12.799Z,100836.97
2024-02-29T01:25:41.035Z,100834.13
2024-02-29T01:28:08.448Z,100827.59
2024-02-29T01:30:36.935Z,100816.66
2024-02-29T01:33:05.345Z,100812.13
2024-02-29T01:35:33.600Z,100809.66
2024-02-29T01:38:01.862Z,100803.66
2024-02-29T01:40:30.150Z,100804.00
2024-02-29T01:42:58.504Z,100799.47
2024-02-29T01:45:26.827Z,100796.00
2024-02-29T01:47:55.156Z,100789.81
2024-02-29T01:50:23.785Z,100797.03
2024-02-29T01:52:52.909Z,100801.16
2024-02-29T01:55:21.158Z,100791.91
2024-02-29T01:57:49.634Z,100796.22
2024-02-29T02:00:18.276Z,100791.47
2024-02-29T02:02:46.765Z,100792.47
2024-02-29T02:05:15.179Z,100788.59
2024-02-29T02:07:45.225Z,100777.31
2024-02-29T02:10:13.950Z,100777.06
2024-02-29T02:12:42.256Z,100774.41
2024-02-29T02:15:10.871Z,100765.75
2024-02-29T02:17:39.137Z,100772.75
2024-02-29T02:20:14.633Z,100756.53
2024-02-29T02:22:42.910Z,100763.31
2024-02-29T02:25:11.186Z,100753.69
2024-02-29T02:27:42.241Z,100750.19
2024-02-29T02:30:11.832Z,100754.47
2024-02-29T02:32:40.776Z,100753.81
2024-02-29T02:35:09.352Z,100753.00
2024-02-29T02:37:38.757Z,100746.22
2024-02-29T02:40:08.101Z,100741.28
2024-02-29T02:42:36.405Z,100738.41
2024-02-29T02:45:05.258Z,100729.94
2024-02-29T02:47:33.582Z,100730.34
2024-02-29T02:50:01.785Z,100729.94
2024-02-29T02:52:30.074Z,100721.31
2024-02-29T02:54:58.287Z,100731.38
2024-02-29T02:57:26.694Z,100716.63
2024-02-29T02:59:55.039Z,100719.72
2024-02-29T03:02:23.604Z,100727.94
2024-02-29T03:04:51.910Z,100722.16
2024-02-29T03:07:20.454Z,100719.84
2024-02-29T03:09:48.830Z,100723.75
2024-02-29T03:12:17.217Z,100717.13
2024-02-29T03:14:45.590Z,100713.66
2024-02-29T03:17:13.923Z,100712.19
2024-02-29T03:19:43.273Z,100717.53
2024-02-29T03:22:11.606Z,100716.13
2024-02-29T03:24:44.453Z,100703.44
2024-02-29T03:27:13.009Z,100718.63
2024-02-29T03:29:41.240Z,100708.16
2024-02-29T03:32:09.465Z,100700.81
2024-02-29T03:34:37.863Z,100702.63
2024-02-29T03:37:06.121Z,100713.13
2024-02-29T03:39:34.373Z,100697.13
2024-02-29T03:42:02.608Z,100704.94
2024-02-29T03:44:30.804Z,100704.53
2024-02-29T03:46:59.010Z,100703.69
2024-02-29T03:49:27.643Z,100703.03
2024-02-29T03:51:55.948Z,100699.09
2024-02-29T03:54:24.154Z,100696.63
2024-02-29T03:56:52.527Z,100703.59
2024-02-29T03:59:21.848Z,100699.00
2024-02-29T04:01:53.097Z,100684.53
2024-02-29T04:04:22.156Z,100688.00
2024-02-29T04:06:50.389Z,100688.00
2024-02-29T04:09:19.061Z,100683.94
2024-02-29T04:11:47.413Z,100679.09
2024-02-29T04:14:15.650Z,100683.38
2024-02-29T04:16:43.904Z,100678.44
2024-02-29T04:19:12.189Z,100678.84
2024-02-29T04:21:48.264Z,100681.13
2024-02-29T04:24:16.582Z,100675.16
2024-02-29T04:26:44.938Z,100678.41
2024-02-29T04:29:13.151Z,100672.25
2024-02-29T04:31:41.401Z,100661.59
2024-02-29T04:34:09.661Z,100656.81
2024-02-29T04:36:38.482Z,100668.06
2024-02-29T04:39:06.771Z,100663.13
2024-02-29T04:41:35.233Z,100665.53
2024-02-29T04:44:03.500Z,100663.06
2024-02-29T04:46:31.811Z,100665.53
2024-02-29T04:49:00.621Z,100663.31
2024-02-29T04:51:28.896Z,100660.44
2024-02-29T04:53:57.104Z,100655.31
2024-02-29T04:56:25.388Z,100659.84
2024-02-29T04:58:53.623Z,100666.81
2024-02-29T05:01:21.953Z,100659.00
2024-02-29T05:03:50.237Z,100654.31
2024-02-29T05:06:18.665Z,100665.97
2024-02-29T05:08:47.669Z,100664.91
2024-02-29T05:11:16.945Z,100664.31
2024-02-29T05:13:45.175Z,100668.25
2024-02-29T05:16:18.074Z,100663.56
2024-02-29T05:18:46.428Z,100659.88
2024-02-29T05:21:15.396Z,100661.50
2024-02-29T05:23:43.609Z,100658.19
2024-02-29T05:26:12.904Z,100658.19
2024-02-29T05:28:41.206Z,100651.38
2024-02-29T05:31:09.929Z,100652.34
2024-02-29T05:33:38.949Z,100647.25
2024-02-29T05:36:07.440Z,100656.16
2024-02-29T05:38:36.008Z,100650.44
2024-02-29T05:41:05.691Z,100655.38
2024-02-29T05:43:36.262Z,100655.38
2024-02-29T05:46:04.900Z,100661.69
2024-02-29T05:48:36.355Z,100658.22
2024-02-29T05:51:05.494Z,100656.25
2024-02-29T05:53:33.759Z,100662.19
2024-02-29T05:56:02.004Z,100650.53
2024-02-29T05:58:32.213Z,100655.47
2024-02-29T06:01:00.819Z,100652.03
2024-02-29T06:03:29.118Z,100653.47
2024-02-29T06:05:57.373Z,100654.28
2024-02-29T06:08:25.551Z,100653.09
2024-02-29T06:10:53.877Z,100659.25
2024-02-29T06:13:22.582Z,100655.63
2024-02-29T06:15:51.118Z,100661.78
2024-02-29T06:18:19.319Z,100653.38
2024-02-29T06:20:47.213Z,100644.59
2024-02-29T06:23:15.422Z,100644.19
2024-02-29T06:25:44.330Z,100642.41
2024-02-29T06:28:12.673Z,100636.28
2024-02-29T06:30:41.502Z,100636.09
2024-02-29T06:33:09.845Z,100640.03
2024-02-29T06:35:38.098Z,100643.31
2024-02-29T06:38:06.423Z,100638.63
2024-02-29T06:40:34.623Z,100646.44
2024-02-29T06:43:03.299Z,100645.22
2024-02-29T06:45:32.430Z,100642.78
2024-02-29T06:48:00.664Z,100641.13
2024-02-29T06:50:28.989Z,100641.38
2024-02-29T06:52:58.713Z,100632.97
2024-02-29T06:55:27.081Z,100636.25
2024-02-29T06:57:55.576Z,100641.03
2024-02-29T07:00:25.932Z,100636.91
2024-02-29T07:02:54.337Z,100638.78
2024-02-29T07:05:22.565Z,100638.78
2024-02-29T07:07:54.025Z,100633.03
2024-02-29T07:10:22.327Z,100627.06
2024-02-29T07:12:51.283Z,100626.25
2024-02-29T07:15:19.633Z,100624.03
2024-02-29T07:17:47.879Z,100627.28
2024-02-29T07:20:16.204Z,100623.59
2024-02-29T07:22:45.305Z,100625.69
2024-02-29T07:25:13.820Z,100621.97
2024-02-29T07:27:45.995Z,100630.22
2024-02-29T07:30:14.362Z,100624.25
2024-02-29T07:32:42.632Z,100630.22
2024-02-29T07:35:13.107Z,100626.91
2024-02-29T07:37:42.331Z,100628.78
2024-02-29T07:40:10.875Z,100621.78
2024-02-29T07:42:41.857Z,100619.94
2024-02-29T07:45:10.962Z,100614.97
2024-02-29T07:47:40.602Z,100616.00
2024-02-29T07:50:10.771Z,100615.16
2024-02-29T07:52:39.601Z,100617.41
2024-02-29T07:55:08.283Z,100612.06
2024-02-29T07:57:37.016Z,100615.94
2024-02-29T08:00:06.163Z,100623.13
2024-02-29T08:02:34.350Z,100615.28
2024-02-29T08:05:02.695Z,100611.97
2024-02-29T08:07:31.325Z,100612.34
2024-02-29T08:09:59.780Z,100612.31
2024-02-29T08:12:28.132Z,100606.94
2024-02-29T08:14:56.382Z,100604.22
2024-02-29T08:17:28.091Z,100601.31
2024-02-29T08:19:57.551Z,100609.53
2024-02-29T08:22:26.723Z,100600.63
2024-02-29T08:24:55.073Z,100601.59
2024-02-29T08:27:23.365Z,100600.28
2024-02-29T08:29:51.616Z,100599.03
2024-02-29T08:32:19.894Z,100600.41
2024-02-29T08:34:48.167Z,100596.69
2024-02-29T08:37:16.218Z,100594.19
2024-02-29T08:39:44.109Z,100595.78
2024-02-29T08:42:12.323Z,100602.97
2024-02-29T08:44:44.780Z,100593.63
2024-02-29T08:47:12.672Z,100585.28
2024-02-29T08:49:40.864Z,100582.94
2024-02-29T08:52:09.688Z,100577.72
2024-02-29T08:54:38.334Z,100582.19
2024-02-29T08:57:08.275Z,100576.91
2024-02-29T08:59:36.276Z,100567.88
2024-02-29T09:02:06.550Z,100574.50
2024-02-29T09:04:34.926Z,100560.50
2024-02-29T09:07:03.786Z,100563.34
2024-02-29T09:09:32.079Z,100559.34
2024-02-29T09:12:00.292Z,100560.78
2024-02-29T09:14:28.578Z,100561.16
2024-02-29T09:16:56.769Z,100555.72
2024-02-29T09:19:25.101Z,100559.00
2024-02-29T09:21:53.366Z,100553.31
2024-02-29T09:24:22.388Z,100550.31
2024-02-29T09:26:50.894Z,100547.19
2024-02-29T09:29:19.084Z,100543.00
2024-02-29T09:31:47.344Z,100546.28
2024-02-29T09:34:15.672Z,100541.19
2024-02-29T09:36:46.379Z,100538.72
2024-02-29T09:39:14.934Z,100534.19
2024-02-29T09:41:59.806Z,100533.53
2024-02-29T09:44:31.652Z,100521.25
2024-02-29T09:46:59.854Z,100526.81
2024-02-29T09:49:29.607Z,100522.09
2024-02-29T09:51:58.493Z,100520.50
2024-02-29T09:54:31.883Z,100514.88
2024-02-29T09:57:00.081Z,100515.56
2024-02-29T09:59:28.732Z,100513.16
2024-02-29T10:01:57.405Z,100503.19
2024-02-29T10:04:27.779Z,100500.31
2024-02-29T10:06:56.596Z,100496.53
2024-02-29T10:09:25.592Z,100501.00
2024-02-29T10:11:57.120Z,100496.66
2024-02-29T10:14:27.645Z,100487.31
2024-02-29T10:16:57.565Z,100483.81
2024-02-29T10:19:26.601Z,100481.56
2024-02-29T10:21:55.060Z,100470.50
2024-02-29T10:24:24.818Z,100476.19
2024-02-29T10:26:53.234Z,100473.97
2024-02-29T10:29:23.806Z,100474.47
2024-02-29T10:31:52.314Z,100474.47
2024-02-29T10:34:22.194Z,100464.50
2024-02-29T10:36:50.574Z,100465.53
2024-02-29T10:39:18.823Z,100461.34
2024-02-29T10:41:51.247Z,100454.06
2024-02-29T10:44:25.434Z,100451.84
2024-02-29T10:46:57.173Z,100441.50
2024-02-29T10:49:35.592Z,100442.06
2024-02-29T10:52:23.265Z,100437.91
2024-02-29T10:55:07.493Z,100438.34
2024-02-29T10:58:07.550Z,100435.75
2024-02-29T11:00:36.436Z,100420.34
2024-02-29T11:03:06.044Z,100423.38
2024-02-29T11:05:34.694Z,100422.78
2024-02-29T11:08:05.628Z,100411.66
2024-02-29T11:10:33.843Z,100414.25
2024-02-29T11:13:04.355Z,100403.03
2024-02-29T11:15:33.322Z,100397.75
2024-02-29T11:18:01.698Z,100396.81
2024-02-29T11:20:31.974Z,100393.31
2024-02-29T11:23:10.856Z,100390.47
2024-02-29T11:25:44.565Z,100391.88
2024-02-29T11:28:13.180Z,100387.53
2024-02-29T11:30:42.273Z,100371.97
2024-02-29T11:33:11.415Z,100366.88
2024-02-29T11:35:39.751Z,100353.50
2024-02-29T11:38:10.055Z,100357.13
2024-02-29T11:40:38.367Z,100348.63
2024-02-29T11:43:08.592Z,100347.50
2024-02-29T11:45:38.747Z,100342.66
2024-02-29T11:48:07.169Z,100332.13
2024-02-29T11:50:35.430Z,100325.09
2024-02-29T11:53:03.729Z,100315.78
2024-02-29T11:55:32.124Z,100316.56
2024-02-29T11:58:01.664Z,100309.63
2024-02-29T12:00:30.071Z,100310.09
2024-02-29T12:02:58.786Z,100298.91
2024-02-29T12:05:27.007Z,100305.88
2024-02-29T12:07:55.219Z,100296.63
2024-02-29T12:10:23.583Z,100300.22
2024-02-29T12:12:51.902Z,100297.03
2024-02-29T12:15:20.364Z,100292.25
2024-02-29T12:17:50.217Z,100293.09
2024-02-29T12:20:18.790Z,100280.75
2024-02-29T12:22:50.105Z,100282.03
2024-02-29T12:25:19.857Z,100275.56
2024-02-29T12:27:48.184Z,100275.06
2024-02-29T12:30:16.195Z,100267.56
2024-02-29T12:32:45.442Z,100260.84
2024-02-29T12:35:14.785Z,100253.81
2024-02-29T12:37:44.092Z,100261.72
2024-02-29T12:40:16.569Z,100243.84
2024-02-29T12:42:44.879Z,100252.78
2024-02-29T12:45:16.064Z,100237.50
2024-02-29T12:47:46.502Z,100239.44
2024-02-29T12:50:14.765Z,100225.81
2024-02-29T12:52:43.051Z,100218.81
2024-02-29T12:55:11.460Z,100222.38
2024-02-29T12:57:39.785Z,100207.84
2024-02-29T13:00:08.972Z,100203.13
2024-02-29T13:02:37.270Z,100207.41
2024-02-29T13:05:05.589Z,100202.50
2024-02-29T13:07:33.881Z,100193.38
2024-02-29T13:10:03.326Z,100189.84
2024-02-29T13:12:31.619Z,100182.31
2024-02-29T13:14:59.840Z,100184.88
2024-02-29T13:17:29.456Z,100179.03
2024-02-29T13:19:57.824Z,100176.13
2024-02-29T13:22:26.036Z,100173.63
2024-02-29T13:24:54.417Z,100169.81
2024-02-29T13:27:22.688Z,100158.25
2024-02-29T13:29:50.644Z,100157.75
2024-02-29T13:32:19.500Z,100148.69
2024-02-29T13:34:47.739Z,100151.94
2024-02-29T13:37:17.337Z,100155.81
2024-02-29T13:39:46.313Z,100147.53
2024-02-29T13:42:14.748Z,100146.81
2024-02-29T13:44:44.343Z,100141.63
2024-02-29T13:47:13.854Z,100139.97
2024-02-29T13:49:42.573Z,100129.97
2024-02-29T13:52:17.758Z,100126.22
2024-02-29T13:54:46.958Z,100124.00
2024-02-29T13:57:15.572Z,100121.34
2024-02-29T13:59:44.995Z,100114.88
2024-02-29T14:02:13.491Z,100121.41
2024-02-29T14:04:41.903Z,100106.34
2024-02-29T14:07:10.168Z,100105.78
2024-02-29T14:09:38.626Z,100095.84
2024-02-29T14:12:07.106Z,100090.69
2024-02-29T14:14:35.304Z,100089.66
2024-02-29T14:17:04.361Z,100078.78
2024-02-29T14:19:33.378Z,100081.50
2024-02-29T14:22:01.724Z,100072.38
2024-02-29T14:24:30.026Z,100072.84
2024-02-29T14:26:58.387Z,100066.34
2024-02-29T14:29:26.650Z,100070.25
2024-02-29T14:31:54.883Z,100056.72
2024-02-29T14:34:23.562Z,100054.06
2024-02-29T14:36:51.906Z,100040.78
2024-02-29T14:39:21.281Z,100045.63
2024-02-29T14:41:49.558Z,100041.31
2024-02-29T14:44:17.988Z,100038.31
2024-02-29T14:46:46.558Z,100029.66
2024-02-29T14:49:15.529Z,100034.56
2024-02-29T14:51:43.863Z,100025.94
2024-02-29T14:54:12.179Z,100025.41
2024-02-29T14:56:40.666Z,100025.13
2024-02-29T14:59:09.348Z,100015.66
2024-02-29T15:01:37.715Z,100019.72
2024-02-29T15:04:06.167Z,100007.03
2024-02-29T15:06:35.283Z,100008.13
2024-02-29T15:09:04.201Z,100014.63
2024-02-29T15:11:32.480Z,100002.50
2024-02-29T15:14:01.505Z,100005.44
2024-02-29T15:16:30.479Z,99994.63
2024-02-29T15:18:58.806Z,100000.00
2024-02-29T15:21:27.192Z,100000.00
2024-02-29T15:23:55.458Z,99990.03
2024-02-29T15:26:23.752Z,99990.56
2024-02-29T15:28:53.077Z,99983.28
2024-02-29T15:31:21.373Z,99982.81
2024-02-29T15:33:50.217Z,99983.84
2024-02-29T15:36:18.609Z,99976.28
2024-02-29T15:38:46.904Z,99976.28
2024-02-29T15:41:15.099Z,99983.25
2024-02-29T15:43:43.300Z,99981.41
2024-02-29T15:46:11.629Z,99974.94
2024-02-29T15:48:39.970Z,99971.66
2024-02-29T15:51:08.387Z,99957.59
2024-02-29T15:53:36.649Z,99960.31
2024-02-29T15:56:05.395Z,99966.78
2024-02-29T15:58:34.096Z,99954.06
2024-02-29T16:01:02.554Z,99953.88
2024-02-29T16:03:30.820Z,99945.22
2024-02-29T16:05:59.134Z,99948.19
2024-02-29T16:08:27.413Z,99935.78
2024-02-29T16:10:55.622Z,99935.25
2024-02-29T16:13:23.933Z,99933.06
2024-02-29T16:15:52.329Z,99928.72
2024-02-29T16:18:20.671Z,99934.66
2024-02-29T16:20:52.564Z,99928.69
2024-02-29T16:23:21.473Z,99928.94
2024-02-29T16:25:50.035Z,99935.13
2024-02-29T16:28:19.762Z,99927.84
2024-02-29T16:30:48.185Z,99925.66
2024-02-29T16:33:16.559Z,99925.91
2024-02-29T16:35:44.837Z,99920.25
2024-02-29T16:38:13.464Z,99918.56
2024-02-29T16:40:42.008Z,99910.47
2024-02-29T16:43:10.338Z,99915.31
2024-02-29T16:45:39.716Z,99909.88
2024-02-29T16:48:08.009Z,99912.03
2024-02-29T16:50:36.469Z,99906.63
2024-02-29T16:53:05.770Z,99912.25
2024-02-29T16:55:34.145Z,99910.28
2024-02-29T16:58:02.517Z,99908.03
2024-02-29T17:00:30.787Z,99901.78
2024-02-29T17:03:00.168Z,99900.09
2024-02-29T17:05:28.427Z,99900.00
2024-02-29T17:07:56.676Z,99899.63
2024-02-29T17:10:24.706Z,99897.94
2024-02-29T17:12:53.041Z,99895.97
2024-02-29T17:15:21.299Z,99893.22
2024-02-29T17:17:49.577Z,99898.31
2024-02-29T17:20:17.896Z,99888.91
2024-02-29T17:22:48.153Z,99893.19
2024-02-29T17:25:16.462Z,99892.06
2024-02-29T17:27:45.223Z,99893.06
2024-02-29T17:30:13.725Z,99891.94
2024-02-29T17:32:42.438Z,99892.47
2024-02-29T17:35:10.763Z,99903.44
2024-02-29T17:37:39.159Z,99892.34
2024-02-29T17:40:07.805Z,99890.19
2024-02-29T17:42:36.133Z,99888.81
2024-02-29T17:45:04.428Z,99883.09
2024-02-29T17:47:32.676Z,99879.84
2024-02-29T17:50:00.669Z,99886.56
2024-02-29T17:52:28.959Z,99891.31
2024-02-29T17:54:58.841Z,99883.50
2024-02-29T17:57:27.503Z,99866.72
2024-02-29T17:59:55.723Z,99869.66
2024-02-29T18:02:23.934Z,99864.00
2024-02-29T18:04:52.880Z,99862.84
2024-02-29T18:07:21.309Z,99862.78
2024-02-29T18:09:49.566Z,99870.81
2024-02-29T18:12:17.836Z,99860.22
2024-02-29T18:14:46.180Z,99855.09
2024-02-29T18:17:14.874Z,99864.25
2024-02-29T18:19:43.161Z,99850.16
2024-02-29T18:22:11.397Z,99851.47
2024-02-29T18:24:42.344Z,99848.47
2024-02-29T18:27:12.159Z,99845.78
2024-02-29T18:29:40.413Z,99850.59
2024-02-29T18:32:08.695Z,99845.47
2024-02-29T18:34:37.147Z,99842.47
2024-02-29T18:37:05.627Z,99840.28
2024-02-29T18:39:33.818Z,99845.09
2024-02-29T18:42:02.010Z,99842.31
2024-02-29T18:44:30.787Z,99835.31
2024-02-29T18:47:00.831Z,99830.44
2024-02-29T18:49:29.127Z,99835.75
2024-02-29T18:51:57.412Z,99828.25
2024-02-29T18:54:25.710Z,99829.56
2024-02-29T18:56:54.097Z,99826.56
2024-02-29T18:59:22.317Z,99826.22
2024-02-29T19:01:54.535Z,99835.34
2024-02-29T19:04:22.841Z,99825.44
2024-02-29T19:06:51.302Z,99828.66
2024-02-29T19:09:19.338Z,99821.69
2024-02-29T19:11:47.630Z,99823.38
2024-02-29T19:14:15.934Z,99817.69
2024-02-29T19:16:45.261Z,99813.03
2024-02-29T19:19:14.807Z,99807.59
2024-02-29T19:21:43.113Z,99800.84
2024-02-29T19:24:12.401Z,99808.09
2024-02-29T19:26:40.921Z,99804.28
2024-02-29T19:29:09.303Z,99804.75
2024-02-29T19:31:37.608Z,99798.59
2024-02-29T19:34:06.254Z,99793.66
2024-02-29T19:36:34.614Z,99793.06
2024-02-29T19:39:02.822Z,99789.81
2024-02-29T19:41:30.737Z,99784.13
2024-02-29T19:43:59.031Z,99786.72
2024-02-29T19:46:27.210Z,99778.09
2024-02-29T19:49:02.245Z,99772.19
2024-02-29T19:51:30.939Z,99776.97
2024-02-29T19:53:59.268Z,99772.91
2024-02-29T19:56:27.531Z,99776.34
2024-02-29T19:58:55.828Z,99766.06
2024-02-29T20:01:24.916Z,99771.69
2024-02-29T20:03:53.347Z,99771.38
2024-02-29T20:06:22.416Z,99762.50
2024-02-29T20:09:13.076Z,99760.41
2024-02-29T20:11:41.103Z,99761.69
2024-02-29T20:14:09.386Z,99767.31
2024-02-29T20:16:37.708Z,99756.00
2024-02-29T20:19:05.970Z,99756.25
2024-02-29T20:21:34.443Z,99758.59
2024-02-29T20:24:02.937Z,99759.09
2024-02-29T20:26:31.124Z,99755.59
2024-02-29T20:28:59.380Z,99752.34
2024-02-29T20:31:29.870Z,99756.31
2024-02-29T20:33:58.395Z,99754.69
2024-02-29T20:36:28.408Z,99750.63
2024-02-29T20:38:56.221Z,99752.19
2024-02-29T20:41:24.489Z,99754.50
2024-02-29T20:43:52.709Z,99745.88
2024-02-29T20:46:21.060Z,99748.50
2024-02-29T20:48:49.784Z,99745.47
2024-02-29T20:51:17.624Z,99741.66
2024-02-29T20:53:45.825Z,99740.00
2024-02-29T20:56:15.123Z,99737.34
2024-02-29T20:58:43.433Z,99743.75
2024-02-29T21:01:11.355Z,99738.38
2024-02-29T21:03:39.345Z,99728.16
2024-02-29T21:06:07.415Z,99732.13
2024-02-29T21:08:36.932Z,99731.53
2024-02-29T21:11:04.929Z,99724.22
2024-02-29T21:13:34.398Z,99718.28
2024-02-29T21:16:02.536Z,99721.47
2024-02-29T21:18:30.797Z,99717.16
2024-02-29T21:20:58.644Z,99721.97
2024-02-29T21:23:27.006Z,99708.31
2024-02-29T21:25:55.818Z,99716.59
2024-02-29T21:28:23.674Z,99706.31
2024-02-29T21:30:52.195Z,99701.94
2024-02-29T21:33:21.960Z,99702.41
2024-02-29T21:35:51.411Z,99700.13
2024-02-29T21:38:20.939Z,99695.56
2024-02-29T21:40:50.845Z,99692.00
2024-02-29T21:43:19.131Z,99693.78
2024-02-29T21:45:47.380Z,99692.25
2024-02-29T21:48:15.837Z,99684.94
2024-02-29T21:50:45.954Z,99686.44
2024-02-29T21:53:14.014Z,99676.22
2024-02-29T21:55:42.859Z,99678.09
2024-02-29T21:58:11.170Z,99677.25
2024-02-29T22:00:39.374Z,99675.06
2024-02-29T22:03:07.699Z,99668.09
2024-02-29T22:05:35.488Z,99666.44
2024-02-29T22:08:03.725Z,99663.91
2024-02-29T22:10:31.664Z,99674.31
2024-02-29T22:13:00.071Z,99665.94
2024-02-29T22:15:28.888Z,99667.56
2024-02-29T22:17:58.858Z,99662.66
2024-02-29T22:20:27.304Z,99661.28
2024-02-29T22:22:55.183Z,99661.28
2024-02-29T22:25:23.648Z,99659.44
2024-02-29T22:27:51.902Z,99653.59
2024-02-29T22:30:20.197Z,99654.31
2024-02-29T22:32:48.520Z,99652.59
2024-02-29T22:35:18.945Z,99644.16
2024-02-29T22:37:49.607Z,99645.59
2024-02-29T22:40:17.763Z,99643.41
2024-02-29T22:42:45.679Z,99638.59
2024-02-29T22:45:13.560Z,99634.53
2024-02-29T22:47:43.764Z,99632.69
2024-02-29T22:50:12.564Z,99632.59
2024-02-29T22:52:40.786Z,99629.31
2024-02-29T22:55:09.333Z,99627.69
2024-02-29T22:57:37.714Z,99634.69
2024-02-29T23:00:11.042Z,99622.81
2024-02-29T23:02:40.842Z,99627.38
2024-02-29T23:05:09.147Z,99622.25
2024-02-29T23:07:37.120Z,99622.25
2024-02-29T23:10:05.271Z,99615.28
2024-02-29T23:12:34.262Z,99612.00
2024-02-29T23:15:02.303Z,99606.41
2024-02-29T23:17:30.649Z,99614.22
2024-02-29T23:19:59.034Z,99605.63
2024-02-29T23:22:26.913Z,99603.53
2024-02-29T23:24:55.250Z,99599.91
2024-02-29T23:27:23.481Z,99599.91
2024-02-29T23:29:51.996Z,99599.91
2024-02-29T23:32:20.270Z,99592.38
2024-02-29T23:34:48.542Z,99594.25
2024-02-29T23:37:16.408Z,99589.94
2024-02-29T23:39:44.280Z,99592.03
2024-02-29T23:42:12.141Z,99598.41
2024-02-29T23:44:39.977Z,99597.88
2024-02-29T23:47:08.359Z,99596.47
2024-02-29T23:49:36.646Z,99587.06
2024-02-29T23:52:05.073Z,99587.53
2024-02-29T23:54:32.897Z,99580.53
2024-02-29T23:57:00.754Z,99582.63
2024-02-29T23:59:29.635Z,99575.91
